Washington Dulles International Airport
KIAD : rendu visible

Aérodrome :











RETROUVEZ-NOUS SUR...

 
LOGIN :

S'inscrire | Disclaimer

   EN    FR    IT 

 









Légende :    VFR   VFR Marginal   IFR   IFR Intensif   IFR Très Intensif
Visi : 
Plafond : 
>= 8 km
>= 3000ft
5 à 8 km
1000 à 3000 ft
1500m à 5 km
500 à 1000 ft
800 à 1500m
200 à 500 ft
< 800m
< 200 ft
Symboles :   Orages  Brouillard  Fortes neiges  Fortes précipitations  Vent > 20 kt






- Altitude de l'aérodrome : 312 ft
- Code IATA : IAD


KIAD - Washington Dulles International

DERNIER METAR :
  • 081252Z 21003KT 10SM BKN110 BKN200 14/12 A2961 RMK AO2 SLP026 T01440117

METARs EXPIRÉS :
  • 081152Z 23008KT 10SM BKN090 BKN120 14/11 A2958 RMK AO2 RAE08 SLP016 P0000 60006 70036 T01390111 10156 20128 58017
  • 081052Z 22007KT 10SM -RA OVC100 13/11 A2962 RMK AO2 SLP030 P0001 T01330111
  • 080952Z 25003KT 10SM -RA OVC090 13/12 A2962 RMK AO2 RAE02B22 SLP028 P0002 T01330117

TAF KIAD
Valide du 08 à 12h jusqu'au 09 à 18h UTC


081134Z 0812/0918 24007KT P6SM BKN100
FM081700 29010G18KT P6SM FEW035 SCT200
FM090000 33004KT P6SM FEW250
FM091000 18005KT P6SM SCT120 BKN140
FM091500 23014G22KT P6SM OVC050



MET'MAP, la Météo Aéronautique d'un coup d'oeil ! - Copyright ORBIFLY Décembre 2007 - Disclaimer

ORBIFLY MET'MAP TEAM :

Programmation & Développement : Alexandra Zaïnal
Sur une idée originale de : Baudouin d'Aumeries
Assistance à la programmation : Marc-Olivier Méhu
Soutien technique & logistique : Manuel Goepfert

Contact : metmap@orbifly.com




SOURCES & CREDITS :

   NOAA       Earth
Advisory